Time;durP1;ratioP1;P1;durP2;ratioP2;P2;SDS_P1;SDS_P2;PMS_P1;PMS_P2;Temp;Humidity;BMP_temperature;BMP_pressure;BME280_temperature;BME280_humidity;BME280_pressure;Samples;Min_cycle;Max_cycle;Signal;HPM_P1;HPM_P2
2022/02/20 00:00:46;;;;;;;13.90;2.42;;;7.20;99.90;;;;;;5030450;28;20026;-47
2022/02/20 00:03:12;;;;;;;4.85;1.83;;;7.20;99.90;;;;;;5029458;28;20061;-49
2022/02/20 00:05:37;;;;;;;5.35;1.85;;;7.30;99.90;;;;;;5029928;28;20033;-50
2022/02/20 00:08:04;;;;;;;7.63;1.35;;;7.30;99.90;;;;;;5030057;28;20536;-45
2022/02/20 00:10:29;;;;;;;4.55;1.95;;;7.30;99.90;;;;;;5030115;28;20033;-50
2022/02/20 00:12:57;;;;;;;4.28;1.90;;;7.30;99.90;;;;;;5029669;28;20083;-48
2022/02/20 00:15:23;;;;;;;8.80;1.90;;;7.20;99.90;;;;;;5030087;28;20552;-48
2022/02/20 00:17:50;;;;;;;9.93;2.08;;;7.30;99.90;;;;;;5029449;28;20524;-49
2022/02/20 00:20:17;;;;;;;5.93;2.03;;;7.30;99.90;;;;;;5029821;28;20018;-55
2022/02/20 00:22:43;;;;;;;15.10;1.83;;;7.30;99.90;;;;;;5028939;28;20029;-50
2022/02/20 00:25:09;;;;;;;7.10;1.40;;;7.30;99.90;;;;;;5028355;28;20033;-50
2022/02/20 00:27:35;;;;;;;6.80;1.58;;;7.40;99.90;;;;;;5029638;28;20030;-47
2022/02/20 00:30:00;;;;;;;6.78;1.63;;;7.40;99.90;;;;;;5029521;28;20108;-46
2022/02/20 00:32:26;;;;;;;7.15;2.25;;;7.40;99.90;;;;;;5029340;28;20078;-49
2022/02/20 00:34:51;;;;;;;10.50;1.92;;;7.40;99.90;;;;;;5029339;28;20029;-51
2022/02/20 00:37:18;;;;;;;6.07;2.08;;;7.40;99.90;;;;;;5028317;28;20033;-53
2022/02/20 00:39:43;;;;;;;6.40;2.70;;;7.50;99.90;;;;;;5029347;28;20033;-50
2022/02/20 00:42:09;;;;;;;9.25;2.13;;;7.50;99.90;;;;;;5029357;28;20110;-48
2022/02/20 00:44:34;;;;;;;8.55;1.85;;;7.50;99.90;;;;;;5029414;28;20300;-48
2022/02/20 00:47:00;;;;;;;6.80;1.50;;;7.50;99.90;;;;;;5029506;28;20017;-48
2022/02/20 00:49:26;;;;;;;5.93;1.67;;;7.50;99.90;;;;;;5028805;28;20041;-48
2022/02/20 00:51:51;;;;;;;7.47;1.95;;;7.50;99.90;;;;;;5029210;28;20025;-51
2022/02/20 00:54:17;;;;;;;5.47;1.95;;;7.50;99.90;;;;;;5028924;28;20081;-47
2022/02/20 00:56:42;;;;;;;6.95;2.08;;;7.40;99.90;;;;;;5029538;28;20061;-48
2022/02/20 00:59:08;;;;;;;4.60;1.58;;;7.40;99.90;;;;;;5030870;28;20033;-47
2022/02/20 01:01:34;;;;;;;8.13;2.00;;;7.40;99.90;;;;;;5030785;28;20520;-49
2022/02/20 01:04:00;;;;;;;12.75;1.92;;;7.40;99.90;;;;;;5031108;28;20469;-49
2022/02/20 01:06:26;;;;;;;5.97;1.38;;;7.40;99.90;;;;;;5030564;28;20029;-52
2022/02/20 01:08:52;;;;;;;5.07;1.33;;;7.40;99.90;;;;;;5039986;22;20065;-48
2022/02/20 01:11:18;;;;;;;7.43;2.20;;;7.40;99.90;;;;;;5026443;28;20022;-50
2022/02/20 01:13:46;;;;;;;8.75;2.83;;;7.40;99.90;;;;;;5012065;28;20018;-45
2022/02/20 01:16:12;;;;;;;5.70;2.38;;;7.40;99.90;;;;;;5010887;28;20022;-46
2022/02/20 01:18:38;;;;;;;13.02;2.70;;;7.40;99.90;;;;;;5040495;28;20029;-46
2022/02/20 01:21:03;;;;;;;4.60;1.73;;;7.40;99.90;;;;;;5031658;28;20409;-48
2022/02/20 01:23:29;;;;;;;10.75;1.70;;;7.40;99.90;;;;;;5031600;28;20041;-47
2022/02/20 01:25:54;;;;;;;7.78;1.80;;;7.50;99.90;;;;;;5031676;28;20026;-47
2022/02/20 01:28:20;;;;;;;9.60;2.58;;;7.50;99.90;;;;;;5031678;28;20021;-47
2022/02/20 01:30:46;;;;;;;8.45;2.80;;;7.50;99.90;;;;;;5031958;28;20056;-47
2022/02/20 01:33:12;;;;;;;4.88;1.50;;;7.50;99.90;;;;;;5031482;28;20025;-47
2022/02/20 01:35:37;;;;;;;4.40;1.45;;;7.50;99.90;;;;;;5031616;28;20022;-52
2022/02/20 01:38:03;;;;;;;6.03;1.63;;;7.50;99.90;;;;;;5031934;28;20028;-46
2022/02/20 01:40:30;;;;;;;3.50;1.48;;;7.50;99.90;;;;;;5031753;28;20493;-53
2022/02/20 01:42:57;;;;;;;7.60;2.00;;;7.50;99.90;;;;;;5031389;28;20017;-50
2022/02/20 01:45:22;;;;;;;4.32;2.15;;;7.50;99.90;;;;;;5031541;28;20116;-50
2022/02/20 01:47:48;;;;;;;5.28;1.83;;;7.50;99.90;;;;;;5031567;28;20049;-48
2022/02/20 01:50:16;;;;;;;8.30;2.28;;;7.50;99.90;;;;;;5031500;28;20036;-50
2022/02/20 01:52:43;;;;;;;6.55;1.70;;;7.60;99.90;;;;;;5031518;28;20021;-52
2022/02/20 01:55:09;;;;;;;7.15;2.25;;;7.60;99.90;;;;;;5031442;28;20029;-50
2022/02/20 01:57:39;;;;;;;5.88;1.60;;;7.60;99.90;;;;;;5031573;28;20071;-44
2022/02/20 02:00:11;;;;;;;10.95;3.33;;;7.50;99.90;;;;;;5031399;28;20033;-49
2022/02/20 02:02:37;;;;;;;7.30;1.92;;;7.60;99.90;;;;;;5031330;28;20017;-51
2022/02/20 02:05:03;;;;;;;3.53;1.40;;;7.50;99.90;;;;;;5031097;28;20369;-49
2022/02/20 02:07:29;;;;;;;5.18;2.88;;;7.40;99.90;;;;;;5031247;28;20052;-47
2022/02/20 02:09:57;;;;;;;4.32;1.60;;;7.40;99.90;;;;;;5031472;28;20054;-51
2022/02/20 02:12:23;;;;;;;7.65;2.75;;;7.40;99.90;;;;;;5046287;28;20412;-48
2022/02/20 02:15:00;;;;;;;10.50;2.38;;;7.40;99.90;;;;;;5030993;28;20029;-46
2022/02/20 02:17:26;;;;;;;5.20;2.05;;;7.40;99.90;;;;;;5031109;28;20025;-47
2022/02/20 02:19:52;;;;;;;4.78;1.80;;;7.40;99.90;;;;;;5031218;28;20044;-49
2022/02/20 02:22:25;;;;;;;5.05;1.85;;;7.40;99.90;;;;;;5031369;28;20388;-48
2022/02/20 02:24:50;;;;;;;8.32;2.40;;;7.40;99.90;;;;;;5031020;28;20034;-47
2022/02/20 02:30:38;;;;;;;4.57;1.73;;;7.50;99.90;;;;;;5030468;28;20082;-47
2022/02/20 02:33:03;;;;;;;6.20;1.88;;;7.40;99.90;;;;;;5030926;28;20505;-49
2022/02/20 02:35:29;;;;;;;4.75;2.20;;;7.40;99.90;;;;;;5031126;28;20466;-48
2022/02/20 02:37:54;;;;;;;7.60;1.75;;;7.50;99.90;;;;;;5031126;28;20037;-50
2022/02/20 02:40:21;;;;;;;7.82;1.65;;;7.50;99.90;;;;;;5030973;28;20026;-51
2022/02/20 02:42:47;;;;;;;4.07;1.88;;;7.50;99.90;;;;;;5030894;28;20444;-46
2022/02/20 02:45:12;;;;;;;3.88;2.25;;;7.50;99.90;;;;;;5031519;28;20453;-47
2022/02/20 02:47:38;;;;;;;6.07;1.88;;;7.50;99.90;;;;;;5049916;28;20032;-52
2022/02/20 02:50:04;;;;;;;4.15;1.80;;;7.50;99.90;;;;;;5034651;28;20401;-47
2022/02/20 02:52:30;;;;;;;5.57;1.92;;;7.50;99.90;;;;;;5034727;28;20037;-48
2022/02/20 02:54:55;;;;;;;6.80;2.00;;;7.50;99.90;;;;;;5034261;28;20026;-48
2022/02/20 02:57:21;;;;;;;10.02;3.50;;;7.40;99.90;;;;;;5034992;28;20030;-47
2022/02/20 02:59:46;;;;;;;13.05;2.15;;;7.50;99.90;;;;;;5034472;28;20037;-49
2022/02/20 03:02:12;;;;;;;2.95;1.63;;;7.50;99.90;;;;;;5034805;28;20037;-48
2022/02/20 03:04:37;;;;;;;8.95;1.85;;;7.50;99.90;;;;;;5035154;28;20026;-45
2022/02/20 03:07:04;;;;;;;3.72;1.50;;;7.50;99.90;;;;;;5034722;28;20029;-48
2022/02/20 03:09:29;;;;;;;4.07;1.75;;;7.50;99.90;;;;;;5034614;28;20079;-50
2022/02/20 03:11:55;;;;;;;5.00;1.88;;;7.50;99.90;;;;;;5034165;28;20033;-47
2022/02/20 03:14:20;;;;;;;4.32;1.70;;;7.60;99.90;;;;;;5034106;28;20025;-48
2022/02/20 03:16:46;;;;;;;7.80;1.75;;;7.50;99.90;;;;;;5034164;28;20099;-47
2022/02/20 03:19:11;;;;;;;3.00;1.95;;;7.50;99.90;;;;;;5033994;28;20120;-50
2022/02/20 03:21:37;;;;;;;6.40;2.25;;;7.60;99.90;;;;;;5034272;28;20124;-46
2022/02/20 03:24:03;;;;;;;5.45;1.63;;;7.50;99.90;;;;;;5033912;28;20018;-48
2022/02/20 03:26:29;;;;;;;7.25;1.95;;;7.60;99.90;;;;;;5033986;28;20476;-48
2022/02/20 03:28:54;;;;;;;5.65;2.83;;;7.60;99.90;;;;;;5034002;28;20033;-46
2022/02/20 03:31:20;;;;;;;5.10;1.30;;;7.50;99.90;;;;;;5034005;28;20029;-53
2022/02/20 03:33:45;;;;;;;5.70;1.60;;;7.50;99.90;;;;;;5033726;28;20030;-47
2022/02/20 03:36:11;;;;;;;3.15;1.20;;;7.50;99.90;;;;;;5033928;28;20040;-46
2022/02/20 03:38:37;;;;;;;5.47;1.65;;;7.60;99.90;;;;;;5033877;28;20034;-50
2022/02/20 03:41:03;;;;;;;3.03;1.70;;;7.60;99.90;;;;;;5033945;28;20039;-51
2022/02/20 03:43:28;;;;;;;6.57;2.47;;;7.60;99.90;;;;;;5033655;28;20021;-50
2022/02/20 03:45:54;;;;;;;3.42;2.33;;;7.60;99.90;;;;;;5033703;28;20049;-50
2022/02/20 03:48:20;;;;;;;2.85;1.20;;;7.60;99.90;;;;;;5033670;28;20123;-48
2022/02/20 03:50:46;;;;;;;3.83;1.55;;;7.60;99.90;;;;;;5033669;28;20017;-51
2022/02/20 03:53:12;;;;;;;2.58;1.80;;;7.60;99.90;;;;;;5033533;28;20112;-46
2022/02/20 03:55:37;;;;;;;5.13;1.50;;;7.50;99.90;;;;;;5033366;28;20061;-48
2022/02/20 03:58:03;;;;;;;5.57;2.05;;;7.50;99.90;;;;;;5032190;28;20033;-45
2022/02/20 04:00:28;;;;;;;4.88;1.67;;;7.50;99.90;;;;;;5033171;28;20030;-45
2022/02/20 04:02:54;;;;;;;2.55;1.60;;;7.50;99.90;;;;;;5032931;28;20485;-43
2022/02/20 04:05:20;;;;;;;2.13;1.40;;;7.50;99.90;;;;;;5033257;28;20500;-44
2022/02/20 04:07:46;;;;;;;6.35;1.63;;;7.50;99.90;;;;;;5048377;28;20029;-50
2022/02/20 04:10:13;;;;;;;6.35;1.67;;;7.50;99.90;;;;;;5033667;28;20030;-47
2022/02/20 04:12:39;;;;;;;2.35;1.42;;;7.60;99.90;;;;;;5032423;28;20083;-53
2022/02/20 04:15:10;;;;;;;1.95;1.55;;;7.50;99.90;;;;;;5032746;28;20040;-45
2022/02/20 04:17:49;;;;;;;4.07;1.67;;;7.50;99.90;;;;;;5032851;28;20026;-45
2022/02/20 04:20:19;;;;;;;3.97;1.50;;;7.50;99.90;;;;;;5048304;28;20396;-47
2022/02/20 04:22:45;;;;;;;3.03;1.58;;;7.50;99.90;;;;;;5032697;28;20461;-46
2022/02/20 04:25:11;;;;;;;6.18;1.90;;;7.50;99.90;;;;;;5032537;28;20448;-49
2022/02/20 04:27:37;;;;;;;7.50;1.85;;;7.40;99.90;;;;;;5032707;28;20018;-51
2022/02/20 04:30:05;;;;;;;3.05;1.65;;;7.40;99.90;;;;;;5032782;28;20469;-53
2022/02/20 04:32:31;;;;;;;7.15;1.80;;;7.30;99.90;;;;;;5032655;28;20025;-51
2022/02/20 04:34:57;;;;;;;4.95;2.10;;;7.30;99.90;;;;;;5032259;28;20078;-47
2022/02/20 04:37:23;;;;;;;10.27;2.17;;;7.20;99.90;;;;;;5032532;28;20511;-50
2022/02/20 04:39:48;;;;;;;6.00;2.55;;;7.20;99.90;;;;;;5032344;28;20030;-48
2022/02/20 04:42:14;;;;;;;9.40;1.77;;;7.10;99.90;;;;;;5032454;28;20497;-48
2022/02/20 04:44:39;;;;;;;5.68;1.90;;;7.10;99.90;;;;;;5032059;28;20033;-46
2022/02/20 04:47:05;;;;;;;2.55;1.60;;;7.00;99.90;;;;;;5032307;28;20539;-46
2022/02/20 04:49:30;;;;;;;6.00;1.88;;;6.90;99.90;;;;;;5032458;28;20489;-51
2022/02/20 04:51:56;;;;;;;6.07;2.63;;;6.90;99.90;;;;;;5032291;28;20068;-50
2022/02/20 04:54:21;;;;;;;4.60;1.83;;;6.80;99.90;;;;;;5032462;28;20067;-49
2022/02/20 04:56:47;;;;;;;5.70;2.00;;;6.70;99.90;;;;;;5032274;28;20057;-48
2022/02/20 04:59:13;;;;;;;3.40;1.83;;;6.70;99.90;;;;;;5031951;28;20029;-52
2022/02/20 05:01:39;;;;;;;4.05;2.05;;;6.60;99.90;;;;;;5032050;28;20026;-51
2022/02/20 05:04:06;;;;;;;11.43;2.35;;;6.60;99.90;;;;;;5031631;28;20388;-50
2022/02/20 05:06:32;;;;;;;8.00;2.15;;;6.60;99.90;;;;;;5032128;28;20029;-47
2022/02/20 05:08:58;;;;;;;2.65;1.90;;;6.60;99.90;;;;;;5031556;28;20394;-45
2022/02/20 05:11:27;;;;;;;5.03;2.13;;;6.50;99.90;;;;;;5047216;28;20527;-45
2022/02/20 05:13:54;;;;;;;12.05;3.05;;;6.50;99.90;;;;;;5031621;28;20032;-45
2022/02/20 05:16:23;;;;;;;10.73;2.33;;;6.50;99.90;;;;;;5031971;28;20025;-45
2022/02/20 05:18:49;;;;;;;7.85;2.30;;;6.50;99.90;;;;;;5031804;28;20038;-49
2022/02/20 05:21:14;;;;;;;5.55;2.58;;;6.50;99.90;;;;;;5032292;28;20036;-48
2022/02/20 05:23:40;;;;;;;3.08;1.90;;;6.60;99.90;;;;;;5031638;28;20026;-49
2022/02/20 05:26:05;;;;;;;6.18;2.15;;;6.50;99.90;;;;;;5031802;28;20018;-48
2022/02/20 05:28:31;;;;;;;7.72;1.83;;;6.50;99.90;;;;;;5046947;28;20519;-50
2022/02/20 05:30:57;;;;;;;6.55;2.30;;;6.50;99.90;;;;;;5031718;28;20392;-47
2022/02/20 05:33:22;;;;;;;7.20;2.22;;;6.50;99.90;;;;;;5031363;28;20113;-50
2022/02/20 05:35:48;;;;;;;4.15;2.20;;;6.50;99.90;;;;;;5031917;28;20409;-46
2022/02/20 05:38:16;;;;;;;7.03;2.35;;;6.40;99.90;;;;;;5031836;28;20025;-48
2022/02/20 05:40:41;;;;;;;4.63;2.35;;;6.50;99.90;;;;;;5031374;28;20215;-47
2022/02/20 05:43:07;;;;;;;6.00;2.88;;;6.50;99.90;;;;;;5031207;28;20396;-49
2022/02/20 05:45:33;;;;;;;6.95;2.53;;;6.50;99.90;;;;;;5031982;28;20389;-47
2022/02/20 05:47:58;;;;;;;8.27;3.20;;;6.50;99.90;;;;;;5031467;28;20018;-49
2022/02/20 05:50:24;;;;;;;5.35;2.85;;;6.50;99.90;;;;;;5031388;28;20034;-47
2022/02/20 05:52:50;;;;;;;6.13;2.67;;;6.50;99.90;;;;;;5031580;28;20033;-48
2022/02/20 05:55:15;;;;;;;9.88;2.97;;;6.60;99.90;;;;;;5031391;28;20473;-48
2022/02/20 05:57:43;;;;;;;10.20;2.95;;;6.50;99.90;;;;;;5031481;28;20072;-49
2022/02/20 06:00:09;;;;;;;6.75;2.15;;;6.60;99.90;;;;;;5046750;28;20060;-48
2022/02/20 06:02:35;;;;;;;6.43;2.47;;;6.60;99.90;;;;;;5031430;28;20029;-50
2022/02/20 06:05:01;;;;;;;5.22;2.70;;;6.70;99.90;;;;;;5031101;28;20448;-45
2022/02/20 06:07:26;;;;;;;13.93;2.58;;;6.80;99.90;;;;;;5031081;28;20034;-49
2022/02/20 06:09:52;;;;;;;9.55;3.28;;;6.80;99.90;;;;;;5046644;28;20400;-48
2022/02/20 06:12:18;;;;;;;10.90;2.63;;;6.90;99.90;;;;;;5031394;28;20027;-46
2022/02/20 06:14:43;;;;;;;5.85;2.47;;;7.00;99.90;;;;;;5030875;28;20473;-49
2022/02/20 06:17:09;;;;;;;9.02;2.42;;;7.00;99.90;;;;;;5031110;28;20025;-52
2022/02/20 06:19:35;;;;;;;9.40;2.40;;;7.00;99.90;;;;;;5031096;28;20136;-48
2022/02/20 06:22:01;;;;;;;8.82;2.33;;;7.00;99.90;;;;;;5034817;28;20021;-49
2022/02/20 06:24:26;;;;;;;6.72;2.60;;;7.10;99.90;;;;;;5035134;28;20075;-46
2022/02/20 06:26:52;;;;;;;15.88;3.45;;;7.00;99.90;;;;;;5035015;28;20101;-51
2022/02/20 06:29:17;;;;;;;3.45;3.10;;;7.00;99.90;;;;;;5034879;28;20025;-50
2022/02/20 06:31:43;;;;;;;7.80;2.30;;;6.90;99.90;;;;;;5034859;28;20432;-49
2022/02/20 06:34:08;;;;;;;6.53;3.10;;;6.90;99.90;;;;;;5034832;28;20036;-48
2022/02/20 06:36:35;;;;;;;9.57;2.55;;;7.00;99.90;;;;;;5034777;28;20404;-48
2022/02/20 06:39:02;;;;;;;10.57;4.18;;;6.90;99.90;;;;;;5049823;28;20056;-48
2022/02/20 06:41:27;;;;;;;8.75;3.40;;;7.00;99.90;;;;;;5034662;28;20025;-50
2022/02/20 06:43:53;;;;;;;7.38;2.45;;;7.00;99.90;;;;;;5034371;28;20086;-46
2022/02/20 06:46:18;;;;;;;5.55;3.30;;;7.10;99.90;;;;;;5034607;28;20473;-50
2022/02/20 06:48:44;;;;;;;5.40;2.28;;;7.10;99.90;;;;;;5034626;28;20028;-49
2022/02/20 06:51:09;;;;;;;6.95;2.28;;;7.20;99.90;;;;;;5034512;28;20021;-50
2022/02/20 06:53:34;;;;;;;10.52;2.30;;;7.20;99.90;;;;;;5034145;28;20049;-48
2022/02/20 06:56:00;;;;;;;6.78;2.08;;;7.30;99.90;;;;;;5034417;28;20111;-45
2022/02/20 06:58:25;;;;;;;6.90;1.80;;;7.30;99.90;;;;;;5034349;28;20401;-47
2022/02/20 07:00:51;;;;;;;8.73;2.15;;;7.30;99.90;;;;;;5034353;28;20037;-49
2022/02/20 07:03:16;;;;;;;6.07;2.80;;;7.40;99.90;;;;;;5034174;28;20030;-45
2022/02/20 07:05:42;;;;;;;7.25;2.30;;;7.50;99.90;;;;;;5034396;28;20022;-46
2022/02/20 07:08:07;;;;;;;9.93;2.92;;;7.50;99.90;;;;;;5056440;22;20053;-48
2022/02/20 07:10:33;;;;;;;7.57;2.33;;;7.60;99.90;;;;;;5032684;28;20030;-48
2022/02/20 07:12:59;;;;;;;11.23;2.28;;;7.60;99.90;;;;;;5034075;28;20087;-49
2022/02/20 07:15:25;;;;;;;8.57;2.00;;;7.60;99.90;;;;;;5049437;28;20064;-49
2022/02/20 07:17:51;;;;;;;3.95;1.75;;;7.60;99.90;;;;;;5034608;28;20024;-48
2022/02/20 07:20:16;;;;;;;8.90;3.42;;;7.60;99.90;;;;;;5033981;28;20037;-48
2022/02/20 07:22:42;;;;;;;6.85;2.55;;;7.60;99.90;;;;;;5032755;28;20396;-50
2022/02/20 07:25:08;;;;;;;5.35;2.17;;;7.60;99.90;;;;;;5032527;28;20037;-48
2022/02/20 07:27:38;;;;;;;4.60;1.85;;;7.70;99.90;;;;;;5033835;28;20542;-47
2022/02/20 07:30:05;;;;;;;4.88;2.08;;;7.70;99.90;;;;;;5032638;28;20035;-50
2022/02/20 07:32:31;;;;;;;6.97;2.08;;;7.70;99.90;;;;;;5033534;28;20147;-48
2022/02/20 07:34:56;;;;;;;7.65;1.77;;;7.70;99.90;;;;;;5033757;28;20492;-48
2022/02/20 07:37:22;;;;;;;7.38;2.42;;;7.70;99.90;;;;;;5033552;28;20030;-48
2022/02/20 07:39:47;;;;;;;6.72;2.05;;;7.80;99.90;;;;;;5033273;28;20029;-49
2022/02/20 07:42:13;;;;;;;5.05;2.40;;;7.80;99.90;;;;;;5033598;28;20021;-49
2022/02/20 07:44:39;;;;;;;4.60;1.73;;;7.70;99.90;;;;;;5033417;28;20037;-49
2022/02/20 07:47:05;;;;;;;9.73;2.33;;;7.80;99.90;;;;;;5033576;28;20021;-48
2022/02/20 07:49:30;;;;;;;2.25;1.55;;;7.80;99.90;;;;;;5033321;28;20396;-48
2022/02/20 07:51:56;;;;;;;9.30;1.73;;;7.80;99.90;;;;;;5033524;28;20081;-47
2022/02/20 07:54:21;;;;;;;7.13;1.52;;;7.80;99.90;;;;;;5032083;28;20512;-49
2022/02/20 07:56:47;;;;;;;7.13;1.50;;;7.80;99.90;;;;;;5032750;28;20022;-49
2022/02/20 07:59:12;;;;;;;5.65;1.75;;;7.80;99.90;;;;;;5032639;28;20059;-48
2022/02/20 08:01:38;;;;;;;7.53;1.60;;;7.90;99.90;;;;;;5033415;28;20030;-49
2022/02/20 08:04:03;;;;;;;7.60;1.48;;;7.90;99.90;;;;;;5032910;28;20493;-49
2022/02/20 08:06:29;;;;;;;10.82;1.75;;;7.90;99.90;;;;;;5031780;28;20167;-49
2022/02/20 08:08:54;;;;;;;2.65;1.55;;;8.00;99.90;;;;;;5032730;28;20390;-48
2022/02/20 08:11:20;;;;;;;7.95;2.15;;;8.10;99.90;;;;;;5032424;28;20029;-50
2022/02/20 08:13:46;;;;;;;5.90;1.45;;;8.00;99.90;;;;;;5032601;28;20025;-47
2022/02/20 08:16:11;;;;;;;7.15;2.25;;;8.00;99.90;;;;;;5032913;28;20073;-47
2022/02/20 08:18:37;;;;;;;8.35;2.30;;;8.10;99.90;;;;;;5032665;28;20021;-50
2022/02/20 08:21:02;;;;;;;5.82;1.83;;;8.00;99.90;;;;;;5031408;28;20021;-46
2022/02/20 08:23:28;;;;;;;4.97;1.60;;;8.00;99.90;;;;;;5032343;28;20099;-47
2022/02/20 08:25:54;;;;;;;8.65;1.80;;;8.10;99.90;;;;;;5032739;28;20116;-50
2022/02/20 08:28:19;;;;;;;4.50;1.63;;;8.10;99.90;;;;;;5031372;28;20052;-48
2022/02/20 08:30:45;;;;;;;10.07;1.90;;;8.10;99.90;;;;;;5032699;28;20068;-52
2022/02/20 08:33:10;;;;;;;7.35;3.17;;;8.00;99.90;;;;;;5032224;28;20600;-47
2022/02/20 08:35:36;;;;;;;1.60;1.48;;;8.00;99.90;;;;;;5031306;28;20034;-48
2022/02/20 08:38:04;;;;;;;6.68;1.80;;;8.00;99.90;;;;;;5032375;28;20032;-49
2022/02/20 08:40:30;;;;;;;6.20;2.10;;;8.00;99.90;;;;;;5032216;28;20109;-48
2022/02/20 08:42:56;;;;;;;2.85;1.85;;;8.00;99.90;;;;;;5031754;28;20508;-46
2022/02/20 08:45:21;;;;;;;5.80;1.83;;;8.00;99.90;;;;;;5032318;28;20100;-48
2022/02/20 08:47:47;;;;;;;4.32;2.25;;;8.00;99.90;;;;;;5032259;28;20076;-53
2022/02/20 08:50:14;;;;;;;5.90;1.70;;;8.00;99.90;;;;;;5032083;28;20025;-47
2022/02/20 08:52:40;;;;;;;7.28;1.50;;;8.00;99.90;;;;;;5032000;28;20504;-47
2022/02/20 08:55:07;;;;;;;2.47;1.40;;;7.90;99.90;;;;;;5032049;28;20033;-48
2022/02/20 08:57:33;;;;;;;1.40;1.30;;;8.00;99.90;;;;;;5030592;28;20060;-51
2022/02/20 08:59:58;;;;;;;2.08;1.45;;;8.00;99.90;;;;;;5031999;28;20064;-48
2022/02/20 09:02:25;;;;;;;4.03;1.88;;;8.00;99.90;;;;;;5031953;28;20052;-50
2022/02/20 09:04:51;;;;;;;7.28;1.40;;;8.00;99.90;;;;;;5031479;28;20040;-51
2022/02/20 09:07:17;;;;;;;2.67;1.25;;;8.00;99.90;;;;;;5030577;28;20030;-47
2022/02/20 09:09:42;;;;;;;5.30;1.70;;;8.10;99.90;;;;;;5030700;28;20033;-51
2022/02/20 09:12:09;;;;;;;4.10;1.83;;;8.10;99.90;;;;;;5031508;28;20034;-56
2022/02/20 09:14:35;;;;;;;2.88;1.77;;;8.00;99.90;;;;;;5029742;28;20037;-47
2022/02/20 09:17:00;;;;;;;2.58;1.42;;;8.10;99.90;;;;;;5016041;28;20026;-49
2022/02/20 09:19:27;;;;;;;2.45;1.42;;;8.10;99.90;;;;;;5014116;28;20100;-47
2022/02/20 09:21:53;;;;;;;8.35;1.92;;;8.10;99.90;;;;;;5031727;28;20547;-48
2022/02/20 09:24:19;;;;;;;6.78;1.80;;;8.10;99.90;;;;;;5029793;28;20078;-48
2022/02/20 09:26:45;;;;;;;2.03;1.60;;;8.10;99.90;;;;;;5019259;28;20030;-48
2022/02/20 09:29:12;;;;;;;11.02;2.10;;;8.20;99.90;;;;;;5011818;28;20026;-48
2022/02/20 09:31:37;;;;;;;2.63;1.33;;;8.20;99.90;;;;;;5011933;28;20025;-53
2022/02/20 09:34:03;;;;;;;5.75;1.83;;;8.20;99.90;;;;;;5011656;28;20030;-50
2022/02/20 09:36:28;;;;;;;4.60;1.75;;;8.30;99.90;;;;;;5012260;28;20459;-49
2022/02/20 09:38:55;;;;;;;4.85;1.55;;;8.30;99.90;;;;;;5011806;28;20026;-50
2022/02/20 09:41:25;;;;;;;5.05;1.88;;;8.40;99.90;;;;;;5010648;28;20093;-52
2022/02/20 09:43:54;;;;;;;1.50;1.40;;;8.40;99.90;;;;;;5011148;28;20110;-48
2022/02/20 09:46:20;;;;;;;3.20;1.40;;;8.40;99.90;;;;;;5022754;28;20449;-51
2022/02/20 09:48:50;;;;;;;1.42;1.30;;;8.50;99.90;;;;;;5030422;28;20104;-49
2022/02/20 09:51:15;;;;;;;4.60;1.33;;;8.50;99.90;;;;;;5017545;28;20521;-48
2022/02/20 09:53:41;;;;;;;2.22;1.23;;;8.60;99.90;;;;;;5011943;28;20115;-49
2022/02/20 09:56:06;;;;;;;1.20;1.10;;;8.60;99.90;;;;;;5033566;28;20076;-45
2022/02/20 09:58:32;;;;;;;2.55;1.17;;;8.60;99.90;;;;;;5035430;28;20025;-49
2022/02/20 10:01:05;;;;;;;1.80;1.10;;;8.70;99.90;;;;;;5034023;28;20139;-48
2022/02/20 10:03:32;;;;;;;3.45;1.42;;;8.70;99.90;;;;;;5034371;28;20048;-51
2022/02/20 10:06:00;;;;;;;2.80;1.35;;;8.70;99.90;;;;;;5034878;28;20025;-55
2022/02/20 10:08:27;;;;;;;2.85;1.38;;;8.70;99.90;;;;;;5034003;28;20559;-55
2022/02/20 10:11:11;;;;;;;3.28;1.30;;;8.70;99.90;;;;;;5035459;28;20033;-50
2022/02/20 10:13:36;;;;;;;3.00;1.33;;;8.70;99.90;;;;;;5015309;28;20026;-49
2022/02/20 10:16:19;;;;;;;1.65;1.00;;;8.80;99.90;;;;;;5014967;28;20079;-51
2022/02/20 10:18:46;;;;;;;2.17;1.58;;;8.80;99.90;;;;;;5015017;28;20049;-48
2022/02/20 10:21:16;;;;;;;3.05;1.17;;;8.80;99.90;;;;;;5013355;28;20026;-51
2022/02/20 10:23:43;;;;;;;5.00;1.10;;;8.80;99.90;;;;;;5016073;28;20477;-49
2022/02/20 10:26:18;;;;;;;3.22;1.25;;;8.80;99.90;;;;;;5033815;28;20455;-54
2022/02/20 10:29:16;;;;;;;3.80;1.10;;;8.90;99.90;;;;;;5034536;28;20025;-49
2022/02/20 10:31:55;;;;;;;4.57;1.13;;;8.90;99.90;;;;;;5034840;28;20036;-50
2022/02/20 10:34:23;;;;;;;0.80;0.80;;;8.90;99.90;;;;;;5034189;28;20538;-51
2022/02/20 10:37:03;;;;;;;7.25;1.60;;;9.00;99.90;;;;;;5034493;28;20033;-47
2022/02/20 10:39:34;;;;;;;3.30;1.83;;;8.90;99.90;;;;;;5034447;28;20021;-52
2022/02/20 10:42:09;;;;;;;1.45;0.82;;;9.00;99.90;;;;;;5034579;28;20491;-53
2022/02/20 10:44:47;;;;;;;;;;;9.00;99.90;;;;;;5034651;28;20049;-52
2022/02/20 10:47:14;;;;;;;1.40;0.70;;;9.10;99.90;;;;;;5034904;28;19945;-55
2022/02/20 10:49:40;;;;;;;2.35;0.90;;;9.10;99.90;;;;;;5034458;28;20029;-50
2022/02/20 10:52:17;;;;;;;0.70;0.70;;;9.20;99.90;;;;;;5034398;28;20033;-52
2022/02/20 10:55:07;;;;;;;2.60;1.75;;;9.20;99.90;;;;;;5034085;28;20084;-51
2022/02/20 10:57:41;;;;;;;3.67;1.30;;;9.20;99.90;;;;;;5034197;28;20034;-52
2022/02/20 11:00:13;;;;;;;3.53;0.98;;;9.30;99.90;;;;;;5034206;28;20021;-49
2022/02/20 11:02:39;;;;;;;0.95;0.95;;;9.30;99.90;;;;;;5034013;28;20097;-49
2022/02/20 11:05:05;;;;;;;1.00;0.70;;;9.30;99.90;;;;;;5033611;28;20044;-45
2022/02/20 11:07:34;;;;;;;1.70;1.10;;;9.40;99.90;;;;;;5023427;28;20029;-48
2022/02/20 11:10:00;;;;;;;2.42;1.40;;;9.30;99.90;;;;;;5014301;28;20026;-46
2022/02/20 11:12:26;;;;;;;2.55;0.80;;;9.40;99.90;;;;;;5028147;28;20025;-48
2022/02/20 11:14:53;;;;;;;0.77;0.68;;;9.40;99.90;;;;;;5032373;28;20104;-50
2022/02/20 11:17:22;;;;;;;2.67;1.63;;;9.40;99.90;;;;;;5032798;28;20075;-46
2022/02/20 11:19:51;;;;;;;2.72;0.93;;;9.30;99.90;;;;;;5032958;28;20076;-50
2022/02/20 11:22:19;;;;;;;0.98;0.60;;;9.30;99.90;;;;;;5033063;28;20041;-47
2022/02/20 11:24:46;;;;;;;1.75;0.77;;;9.30;99.90;;;;;;5035014;28;20018;-51
2022/02/20 11:27:16;;;;;;;0.55;0.55;;;9.30;99.90;;;;;;5027920;28;20029;-55
2022/02/20 11:29:42;;;;;;;0.52;0.52;;;9.40;99.90;;;;;;5013884;28;20474;-52
2022/02/20 11:32:09;;;;;;;1.60;0.50;;;9.40;99.90;;;;;;5026214;28;20029;-49
2022/02/20 11:34:42;;;;;;;0.70;0.70;;;9.30;99.90;;;;;;5033314;28;20030;-53
2022/02/20 11:37:08;;;;;;;1.15;0.60;;;9.30;99.90;;;;;;5033520;28;20029;-52
2022/02/20 11:39:34;;;;;;;0.50;0.50;;;9.40;99.90;;;;;;5011829;28;20032;-52
2022/02/20 11:42:11;;;;;;;0.50;0.50;;;9.40;99.90;;;;;;5023110;28;20022;-54
2022/02/20 11:44:52;;;;;;;0.52;0.50;;;9.50;99.90;;;;;;5013553;28;20101;-48
2022/02/20 11:47:43;;;;;;;1.75;0.70;;;9.50;99.90;;;;;;5030489;28;20032;-49
2022/02/20 11:50:17;;;;;;;0.57;0.45;;;9.50;99.90;;;;;;5028387;28;20744;-53
2022/02/20 11:53:06;;;;;;;0.40;0.40;;;9.50;99.90;;;;;;5033305;28;20029;-50
2022/02/20 11:55:35;;;;;;;1.15;0.50;;;9.50;99.90;;;;;;5033066;28;20509;-49
2022/02/20 11:58:13;;;;;;;0.30;0.30;;;9.50;99.90;;;;;;5031588;28;20497;-49
2022/02/20 12:00:55;;;;;;;0.35;0.35;;;9.50;99.90;;;;;;5013296;28;20405;-52
2022/02/20 12:03:21;;;;;;;0.68;0.68;;;9.50;99.90;;;;;;5021707;28;20100;-49
2022/02/20 12:06:19;;;;;;;0.30;0.30;;;9.50;99.90;;;;;;5032764;28;20079;-49
2022/02/20 12:08:50;;;;;;;0.80;0.40;;;9.50;99.90;;;;;;5028110;28;20048;-47
2022/02/20 12:11:24;;;;;;;1.45;0.50;;;9.60;99.90;;;;;;5025582;28;20048;-54
2022/02/20 12:13:56;;;;;;;0.63;0.63;;;9.60;99.90;;;;;;5032623;28;20033;-50
2022/02/20 12:16:33;;;;;;;0.77;0.50;;;9.60;99.90;;;;;;5031271;28;20055;-52
2022/02/20 12:19:31;;;;;;;0.52;0.30;;;9.50;99.90;;;;;;5029178;28;20028;-51
2022/02/20 12:21:58;;;;;;;0.32;0.30;;;9.50;99.90;;;;;;5030190;28;20095;-48
2022/02/20 12:24:27;;;;;;;1.20;0.55;;;9.50;99.90;;;;;;5032231;28;20030;-50
2022/02/20 12:26:58;;;;;;;1.98;0.38;;;9.40;99.90;;;;;;5021239;28;20029;-48
2022/02/20 12:29:38;;;;;;;0.75;0.68;;;9.40;99.90;;;;;;5025547;28;20030;-47
2022/02/20 12:32:14;;;;;;;0.60;0.60;;;9.40;99.90;;;;;;5012839;28;20018;-50
2022/02/20 12:35:03;;;;;;;0.95;0.60;;;9.40;99.90;;;;;;5029114;28;20017;-48
2022/02/20 12:37:35;;;;;;;0.30;0.30;;;9.40;99.90;;;;;;5032904;28;20079;-50
2022/02/20 12:40:12;;;;;;;0.30;0.30;;;9.30;99.90;;;;;;5032159;28;20036;-49
2022/02/20 12:42:45;;;;;;;0.38;0.30;;;9.30;99.90;;;;;;5032631;28;20059;-46
2022/02/20 12:45:14;;;;;;;0.30;0.30;;;9.30;99.90;;;;;;5031871;28;20424;-52
2022/02/20 12:47:40;;;;;;;0.28;0.28;;;9.40;99.90;;;;;;5032021;28;20025;-49
2022/02/20 12:50:09;;;;;;;0.20;0.20;;;9.40;99.90;;;;;;5031503;28;20020;-48
2022/02/20 12:52:36;;;;;;;0.30;0.30;;;9.40;99.90;;;;;;5032556;28;20032;-45
2022/02/20 12:55:04;;;;;;;0.30;0.30;;;9.40;99.90;;;;;;5031881;28;20108;-43
2022/02/20 12:57:36;;;;;;;0.22;0.20;;;9.50;99.90;;;;;;5032258;28;20029;-45
2022/02/20 13:00:05;;;;;;;0.30;0.30;;;9.50;99.90;;;;;;5032559;28;20018;-49